sensor_id;sensor_type;location;lat;lon;timestamp;P1;durP1;ratioP1;P2;durP2;ratioP2
803;SDS011;25687;49.976;8.240;2023-07-30T00:01:00;2.07;;;1.90;;
803;SDS011;25687;49.976;8.240;2023-07-30T00:03:25;3.50;;;2.10;;
803;SDS011;25687;49.976;8.240;2023-07-30T00:05:51;2.23;;;2.03;;
803;SDS011;25687;49.976;8.240;2023-07-30T00:08:18;3.53;;;2.07;;
803;SDS011;25687;49.976;8.240;2023-07-30T00:10:43;5.00;;;1.93;;
803;SDS011;25687;49.976;8.240;2023-07-30T00:13:08;2.27;;;2.03;;
803;SDS011;25687;49.976;8.240;2023-07-30T00:15:33;3.17;;;2.07;;
803;SDS011;25687;49.976;8.240;2023-07-30T00:17:59;6.27;;;2.20;;
803;SDS011;25687;49.976;8.240;2023-07-30T00:20:24;4.33;;;1.90;;
803;SDS011;25687;49.976;8.240;2023-07-30T00:22:49;3.30;;;1.80;;
803;SDS011;25687;49.976;8.240;2023-07-30T00:25:14;2.03;;;1.93;;
803;SDS011;25687;49.976;8.240;2023-07-30T00:27:40;1.90;;;1.80;;
803;SDS011;25687;49.976;8.240;2023-07-30T00:30:05;1.60;;;1.50;;
803;SDS011;25687;49.976;8.240;2023-07-30T00:32:31;1.70;;;1.60;;
803;SDS011;25687;49.976;8.240;2023-07-30T00:34:56;1.70;;;1.60;;
803;SDS011;25687;49.976;8.240;2023-07-30T00:37:21;1.53;;;1.43;;
803;SDS011;25687;49.976;8.240;2023-07-30T00:39:47;2.33;;;1.47;;
803;SDS011;25687;49.976;8.240;2023-07-30T00:42:12;3.20;;;1.30;;
803;SDS011;25687;49.976;8.240;2023-07-30T00:44:37;1.63;;;1.53;;
803;SDS011;25687;49.976;8.240;2023-07-30T00:47:03;1.80;;;1.70;;
803;SDS011;25687;49.976;8.240;2023-07-30T00:49:28;1.73;;;1.47;;
803;SDS011;25687;49.976;8.240;2023-07-30T00:51:54;2.23;;;1.40;;
803;SDS011;25687;49.976;8.240;2023-07-30T00:54:21;3.63;;;1.50;;
803;SDS011;25687;49.976;8.240;2023-07-30T00:56:49;1.50;;;1.40;;
803;SDS011;25687;49.976;8.240;2023-07-30T00:59:17;2.07;;;1.40;;
803;SDS011;25687;49.976;8.240;2023-07-30T01:01:42;1.30;;;1.20;;
803;SDS011;25687;49.976;8.240;2023-07-30T01:04:10;3.10;;;1.30;;
803;SDS011;25687;49.976;8.240;2023-07-30T01:06:36;3.10;;;1.20;;
803;SDS011;25687;49.976;8.240;2023-07-30T01:09:01;1.60;;;1.50;;
803;SDS011;25687;49.976;8.240;2023-07-30T01:11:27;1.50;;;1.40;;
803;SDS011;25687;49.976;8.240;2023-07-30T01:13:53;2.57;;;1.30;;
803;SDS011;25687;49.976;8.240;2023-07-30T01:16:19;1.50;;;1.40;;
803;SDS011;25687;49.976;8.240;2023-07-30T01:18:44;3.10;;;1.33;;
803;SDS011;25687;49.976;8.240;2023-07-30T01:21:11;1.00;;;1.00;;
803;SDS011;25687;49.976;8.240;2023-07-30T01:23:37;1.37;;;1.20;;
803;SDS011;25687;49.976;8.240;2023-07-30T01:26:08;1.40;;;1.30;;
803;SDS011;25687;49.976;8.240;2023-07-30T01:28:38;2.93;;;1.40;;
803;SDS011;25687;49.976;8.240;2023-07-30T01:31:08;2.63;;;1.20;;
803;SDS011;25687;49.976;8.240;2023-07-30T01:33:38;2.77;;;1.33;;
803;SDS011;25687;49.976;8.240;2023-07-30T01:36:05;1.27;;;1.17;;
803;SDS011;25687;49.976;8.240;2023-07-30T01:38:35;1.53;;;1.23;;
803;SDS011;25687;49.976;8.240;2023-07-30T01:41:02;4.07;;;1.80;;
803;SDS011;25687;49.976;8.240;2023-07-30T01:43:27;1.13;;;1.07;;
803;SDS011;25687;49.976;8.240;2023-07-30T01:45:53;1.00;;;1.00;;
803;SDS011;25687;49.976;8.240;2023-07-30T01:48:18;1.20;;;1.20;;
803;SDS011;25687;49.976;8.240;2023-07-30T01:50:43;3.17;;;1.47;;
803;SDS011;25687;49.976;8.240;2023-07-30T01:53:12;2.80;;;1.40;;
803;SDS011;25687;49.976;8.240;2023-07-30T01:55:37;1.83;;;1.27;;
803;SDS011;25687;49.976;8.240;2023-07-30T01:58:04;1.30;;;1.20;;
803;SDS011;25687;49.976;8.240;2023-07-30T02:00:29;1.20;;;1.10;;
803;SDS011;25687;49.976;8.240;2023-07-30T02:02:55;1.10;;;1.00;;
803;SDS011;25687;49.976;8.240;2023-07-30T02:05:20;1.90;;;1.30;;
803;SDS011;25687;49.976;8.240;2023-07-30T02:07:45;1.40;;;1.30;;
803;SDS011;25687;49.976;8.240;2023-07-30T02:10:10;1.40;;;1.30;;
803;SDS011;25687;49.976;8.240;2023-07-30T02:12:36;1.30;;;1.20;;
803;SDS011;25687;49.976;8.240;2023-07-30T02:15:01;1.63;;;1.20;;
803;SDS011;25687;49.976;8.240;2023-07-30T02:17:26;3.07;;;1.30;;
803;SDS011;25687;49.976;8.240;2023-07-30T02:19:51;1.27;;;1.17;;
803;SDS011;25687;49.976;8.240;2023-07-30T02:22:17;1.17;;;1.13;;
803;SDS011;25687;49.976;8.240;2023-07-30T02:24:42;4.47;;;1.30;;
803;SDS011;25687;49.976;8.240;2023-07-30T02:27:07;2.53;;;1.50;;
803;SDS011;25687;49.976;8.240;2023-07-30T02:29:33;1.50;;;1.40;;
803;SDS011;25687;49.976;8.240;2023-07-30T02:31:58;1.30;;;1.20;;
803;SDS011;25687;49.976;8.240;2023-07-30T02:34:24;2.60;;;1.53;;
803;SDS011;25687;49.976;8.240;2023-07-30T02:36:50;1.53;;;1.40;;
803;SDS011;25687;49.976;8.240;2023-07-30T02:39:15;1.73;;;1.63;;
803;SDS011;25687;49.976;8.240;2023-07-30T02:41:40;2.10;;;1.60;;
803;SDS011;25687;49.976;8.240;2023-07-30T02:44:05;2.00;;;1.80;;
803;SDS011;25687;49.976;8.240;2023-07-30T02:46:31;4.60;;;1.77;;
803;SDS011;25687;49.976;8.240;2023-07-30T02:48:56;1.83;;;1.50;;
803;SDS011;25687;49.976;8.240;2023-07-30T02:51:21;1.70;;;1.57;;
803;SDS011;25687;49.976;8.240;2023-07-30T02:53:46;1.50;;;1.40;;
803;SDS011;25687;49.976;8.240;2023-07-30T02:56:12;1.63;;;1.53;;
803;SDS011;25687;49.976;8.240;2023-07-30T02:58:37;1.80;;;1.50;;
803;SDS011;25687;49.976;8.240;2023-07-30T03:01:08;1.37;;;1.30;;
803;SDS011;25687;49.976;8.240;2023-07-30T03:03:34;1.90;;;1.43;;
803;SDS011;25687;49.976;8.240;2023-07-30T03:05:59;1.87;;;1.57;;
803;SDS011;25687;49.976;8.240;2023-07-30T03:08:25;1.63;;;1.53;;
803;SDS011;25687;49.976;8.240;2023-07-30T03:10:50;2.80;;;1.70;;
803;SDS011;25687;49.976;8.240;2023-07-30T03:13:15;2.77;;;1.80;;
803;SDS011;25687;49.976;8.240;2023-07-30T03:15:41;1.60;;;1.50;;
803;SDS011;25687;49.976;8.240;2023-07-30T03:18:06;3.30;;;1.77;;
803;SDS011;25687;49.976;8.240;2023-07-30T03:20:31;2.80;;;1.70;;
803;SDS011;25687;49.976;8.240;2023-07-30T03:22:56;2.63;;;1.70;;
803;SDS011;25687;49.976;8.240;2023-07-30T03:25:22;1.63;;;1.53;;
803;SDS011;25687;49.976;8.240;2023-07-30T03:27:47;1.57;;;1.47;;
803;SDS011;25687;49.976;8.240;2023-07-30T03:30:12;2.47;;;1.37;;
803;SDS011;25687;49.976;8.240;2023-07-30T03:32:37;1.80;;;1.70;;
803;SDS011;25687;49.976;8.240;2023-07-30T03:35:03;2.20;;;1.60;;
803;SDS011;25687;49.976;8.240;2023-07-30T03:37:28;1.57;;;1.20;;
803;SDS011;25687;49.976;8.240;2023-07-30T03:39:54;2.27;;;1.70;;
803;SDS011;25687;49.976;8.240;2023-07-30T03:42:19;1.80;;;1.70;;
803;SDS011;25687;49.976;8.240;2023-07-30T03:44:45;2.57;;;1.70;;
803;SDS011;25687;49.976;8.240;2023-07-30T03:47:10;1.43;;;1.33;;
803;SDS011;25687;49.976;8.240;2023-07-30T03:49:35;2.80;;;1.70;;
803;SDS011;25687;49.976;8.240;2023-07-30T03:52:02;1.73;;;1.63;;
803;SDS011;25687;49.976;8.240;2023-07-30T03:54:27;2.80;;;1.60;;
803;SDS011;25687;49.976;8.240;2023-07-30T03:56:53;1.60;;;1.40;;
803;SDS011;25687;49.976;8.240;2023-07-30T03:59:18;1.80;;;1.70;;
803;SDS011;25687;49.976;8.240;2023-07-30T04:01:43;4.97;;;1.80;;
803;SDS011;25687;49.976;8.240;2023-07-30T04:04:08;2.20;;;2.00;;
803;SDS011;25687;49.976;8.240;2023-07-30T04:06:34;2.03;;;1.93;;
803;SDS011;25687;49.976;8.240;2023-07-30T04:08:59;1.70;;;1.60;;
803;SDS011;25687;49.976;8.240;2023-07-30T04:11:24;2.27;;;1.57;;
803;SDS011;25687;49.976;8.240;2023-07-30T04:13:49;1.90;;;1.70;;
803;SDS011;25687;49.976;8.240;2023-07-30T04:16:15;1.90;;;1.80;;
803;SDS011;25687;49.976;8.240;2023-07-30T04:18:40;2.53;;;1.70;;
803;SDS011;25687;49.976;8.240;2023-07-30T04:21:05;1.97;;;1.70;;
803;SDS011;25687;49.976;8.240;2023-07-30T04:23:30;4.00;;;1.97;;
803;SDS011;25687;49.976;8.240;2023-07-30T04:25:56;1.73;;;1.63;;
803;SDS011;25687;49.976;8.240;2023-07-30T04:28:21;1.80;;;1.70;;
803;SDS011;25687;49.976;8.240;2023-07-30T04:30:46;1.97;;;1.50;;
803;SDS011;25687;49.976;8.240;2023-07-30T04:33:12;3.27;;;1.50;;
803;SDS011;25687;49.976;8.240;2023-07-30T04:35:39;1.63;;;1.53;;
803;SDS011;25687;49.976;8.240;2023-07-30T04:38:04;1.57;;;1.47;;
803;SDS011;25687;49.976;8.240;2023-07-30T04:40:29;1.63;;;1.53;;
803;SDS011;25687;49.976;8.240;2023-07-30T04:42:55;2.20;;;2.03;;
803;SDS011;25687;49.976;8.240;2023-07-30T04:45:20;2.73;;;1.97;;
803;SDS011;25687;49.976;8.240;2023-07-30T04:47:45;2.37;;;1.70;;
803;SDS011;25687;49.976;8.240;2023-07-30T04:50:10;3.33;;;1.60;;
803;SDS011;25687;49.976;8.240;2023-07-30T04:52:36;1.50;;;1.40;;
803;SDS011;25687;49.976;8.240;2023-07-30T04:55:02;3.00;;;1.60;;
803;SDS011;25687;49.976;8.240;2023-07-30T04:57:27;3.03;;;1.90;;
803;SDS011;25687;49.976;8.240;2023-07-30T04:59:52;2.03;;;1.83;;
803;SDS011;25687;49.976;8.240;2023-07-30T05:02:18;1.60;;;1.50;;
803;SDS011;25687;49.976;8.240;2023-07-30T05:04:43;3.20;;;1.90;;
803;SDS011;25687;49.976;8.240;2023-07-30T05:07:08;3.93;;;1.90;;
803;SDS011;25687;49.976;8.240;2023-07-30T05:09:34;2.00;;;1.83;;
803;SDS011;25687;49.976;8.240;2023-07-30T05:11:59;2.73;;;1.80;;
803;SDS011;25687;49.976;8.240;2023-07-30T05:14:24;1.67;;;1.57;;
803;SDS011;25687;49.976;8.240;2023-07-30T05:16:49;1.90;;;1.80;;
803;SDS011;25687;49.976;8.240;2023-07-30T05:19:15;2.13;;;1.80;;
803;SDS011;25687;49.976;8.240;2023-07-30T05:21:41;4.20;;;2.23;;
803;SDS011;25687;49.976;8.240;2023-07-30T05:33:47;2.30;;;1.60;;
803;SDS011;25687;49.976;8.240;2023-07-30T05:36:13;1.60;;;1.50;;
803;SDS011;25687;49.976;8.240;2023-07-30T05:38:38;6.97;;;1.90;;
803;SDS011;25687;49.976;8.240;2023-07-30T05:41:03;1.77;;;1.57;;
803;SDS011;25687;49.976;8.240;2023-07-30T05:43:28;2.20;;;1.70;;
803;SDS011;25687;49.976;8.240;2023-07-30T05:45:54;1.40;;;1.30;;
803;SDS011;25687;49.976;8.240;2023-07-30T05:48:19;2.70;;;1.80;;
803;SDS011;25687;49.976;8.240;2023-07-30T05:50:44;2.00;;;1.77;;
803;SDS011;25687;49.976;8.240;2023-07-30T05:53:09;1.50;;;1.40;;
803;SDS011;25687;49.976;8.240;2023-07-30T05:55:35;3.43;;;1.23;;
803;SDS011;25687;49.976;8.240;2023-07-30T05:58:00;3.60;;;1.37;;
803;SDS011;25687;49.976;8.240;2023-07-30T06:00:25;1.53;;;1.40;;
803;SDS011;25687;49.976;8.240;2023-07-30T06:02:51;1.60;;;1.47;;
803;SDS011;25687;49.976;8.240;2023-07-30T06:05:16;2.37;;;1.50;;
803;SDS011;25687;49.976;8.240;2023-07-30T06:07:41;2.63;;;1.50;;
803;SDS011;25687;49.976;8.240;2023-07-30T06:10:07;1.70;;;1.60;;
803;SDS011;25687;49.976;8.240;2023-07-30T06:12:32;2.90;;;1.50;;
803;SDS011;25687;49.976;8.240;2023-07-30T06:14:57;1.50;;;1.40;;
803;SDS011;25687;49.976;8.240;2023-07-30T06:17:23;1.70;;;1.60;;
803;SDS011;25687;49.976;8.240;2023-07-30T06:19:48;1.90;;;1.50;;
803;SDS011;25687;49.976;8.240;2023-07-30T06:22:14;2.80;;;1.53;;
803;SDS011;25687;49.976;8.240;2023-07-30T06:24:39;1.57;;;1.47;;
803;SDS011;25687;49.976;8.240;2023-07-30T06:27:04;1.67;;;1.40;;
803;SDS011;25687;49.976;8.240;2023-07-30T06:29:30;1.50;;;1.40;;
803;SDS011;25687;49.976;8.240;2023-07-30T06:31:55;1.83;;;1.40;;
803;SDS011;25687;49.976;8.240;2023-07-30T06:34:20;1.60;;;1.50;;
803;SDS011;25687;49.976;8.240;2023-07-30T06:36:46;1.63;;;1.40;;
803;SDS011;25687;49.976;8.240;2023-07-30T06:39:11;3.03;;;1.60;;
803;SDS011;25687;49.976;8.240;2023-07-30T06:41:36;1.80;;;1.50;;
803;SDS011;25687;49.976;8.240;2023-07-30T06:44:01;6.40;;;1.93;;
803;SDS011;25687;49.976;8.240;2023-07-30T06:46:27;1.53;;;1.43;;
803;SDS011;25687;49.976;8.240;2023-07-30T06:48:52;1.77;;;1.67;;
803;SDS011;25687;49.976;8.240;2023-07-30T06:51:23;3.40;;;1.43;;
803;SDS011;25687;49.976;8.240;2023-07-30T06:53:49;2.07;;;1.87;;
803;SDS011;25687;49.976;8.240;2023-07-30T06:56:14;3.50;;;1.93;;
803;SDS011;25687;49.976;8.240;2023-07-30T06:58:39;2.80;;;1.83;;
803;SDS011;25687;49.976;8.240;2023-07-30T07:01:05;1.50;;;1.40;;
803;SDS011;25687;49.976;8.240;2023-07-30T07:03:30;1.67;;;1.57;;
803;SDS011;25687;49.976;8.240;2023-07-30T07:05:55;2.57;;;1.57;;
803;SDS011;25687;49.976;8.240;2023-07-30T07:08:21;1.93;;;1.77;;
803;SDS011;25687;49.976;8.240;2023-07-30T07:10:47;2.57;;;1.70;;
803;SDS011;25687;49.976;8.240;2023-07-30T07:13:12;2.40;;;2.00;;
803;SDS011;25687;49.976;8.240;2023-07-30T07:15:40;2.90;;;2.07;;
803;SDS011;25687;49.976;8.240;2023-07-30T07:18:06;4.60;;;1.93;;
803;SDS011;25687;49.976;8.240;2023-07-30T07:20:31;2.37;;;2.17;;
803;SDS011;25687;49.976;8.240;2023-07-30T07:22:57;3.03;;;2.10;;
803;SDS011;25687;49.976;8.240;2023-07-30T07:25:22;4.93;;;2.03;;
803;SDS011;25687;49.976;8.240;2023-07-30T07:27:47;2.43;;;2.10;;
803;SDS011;25687;49.976;8.240;2023-07-30T07:30:12;2.30;;;1.77;;
803;SDS011;25687;49.976;8.240;2023-07-30T07:32:38;3.60;;;2.30;;
803;SDS011;25687;49.976;8.240;2023-07-30T07:35:04;3.43;;;1.87;;
803;SDS011;25687;49.976;8.240;2023-07-30T07:37:31;3.37;;;1.67;;
803;SDS011;25687;49.976;8.240;2023-07-30T07:39:57;2.20;;;1.87;;
803;SDS011;25687;49.976;8.240;2023-07-30T07:42:22;2.23;;;1.90;;
803;SDS011;25687;49.976;8.240;2023-07-30T07:44:47;3.23;;;1.87;;
803;SDS011;25687;49.976;8.240;2023-07-30T07:47:13;1.77;;;1.67;;
803;SDS011;25687;49.976;8.240;2023-07-30T07:49:38;2.93;;;2.00;;
803;SDS011;25687;49.976;8.240;2023-07-30T07:52:03;2.13;;;1.80;;
803;SDS011;25687;49.976;8.240;2023-07-30T07:54:29;2.13;;;1.80;;
803;SDS011;25687;49.976;8.240;2023-07-30T07:56:54;2.43;;;1.57;;
803;SDS011;25687;49.976;8.240;2023-07-30T07:59:19;1.83;;;1.70;;
803;SDS011;25687;49.976;8.240;2023-07-30T08:01:45;1.60;;;1.50;;
803;SDS011;25687;49.976;8.240;2023-07-30T08:04:10;1.80;;;1.40;;
803;SDS011;25687;49.976;8.240;2023-07-30T08:06:35;4.90;;;1.70;;
803;SDS011;25687;49.976;8.240;2023-07-30T08:09:01;2.58;;;1.88;;
803;SDS011;25687;49.976;8.240;2023-07-30T08:11:27;2.42;;;1.80;;
803;SDS011;25687;49.976;8.240;2023-07-30T08:13:52;1.58;;;1.30;;
803;SDS011;25687;49.976;8.240;2023-07-30T08:16:17;2.10;;;1.88;;
803;SDS011;25687;49.976;8.240;2023-07-30T08:18:43;1.60;;;1.50;;
803;SDS011;25687;49.976;8.240;2023-07-30T08:21:08;1.85;;;1.75;;
803;SDS011;25687;49.976;8.240;2023-07-30T08:23:33;2.30;;;1.40;;
803;SDS011;25687;49.976;8.240;2023-07-30T08:25:59;2.75;;;1.98;;
803;SDS011;25687;49.976;8.240;2023-07-30T08:28:24;1.77;;;1.65;;
803;SDS011;25687;49.976;8.240;2023-07-30T08:30:50;3.88;;;1.70;;
803;SDS011;25687;49.976;8.240;2023-07-30T08:33:15;3.15;;;1.92;;
803;SDS011;25687;49.976;8.240;2023-07-30T08:35:40;2.95;;;2.03;;
803;SDS011;25687;49.976;8.240;2023-07-30T08:38:05;2.60;;;2.25;;
803;SDS011;25687;49.976;8.240;2023-07-30T08:40:31;2.97;;;2.17;;
803;SDS011;25687;49.976;8.240;2023-07-30T08:42:56;2.25;;;2.05;;
803;SDS011;25687;49.976;8.240;2023-07-30T08:45:22;3.88;;;2.40;;
803;SDS011;25687;49.976;8.240;2023-07-30T08:47:48;3.60;;;2.60;;
803;SDS011;25687;49.976;8.240;2023-07-30T08:50:13;3.05;;;2.50;;
803;SDS011;25687;49.976;8.240;2023-07-30T08:52:39;2.83;;;2.10;;
803;SDS011;25687;49.976;8.240;2023-07-30T08:55:05;2.90;;;2.67;;
803;SDS011;25687;49.976;8.240;2023-07-30T08:57:31;2.30;;;2.20;;
803;SDS011;25687;49.976;8.240;2023-07-30T09:00:01;6.03;;;2.90;;
803;SDS011;25687;49.976;8.240;2023-07-30T09:02:39;3.47;;;2.27;;
803;SDS011;25687;49.976;8.240;2023-07-30T09:05:11;3.00;;;1.63;;
803;SDS011;25687;49.976;8.240;2023-07-30T09:07:36;1.57;;;1.47;;
803;SDS011;25687;49.976;8.240;2023-07-30T09:10:02;1.77;;;1.40;;
803;SDS011;25687;49.976;8.240;2023-07-30T09:12:31;2.17;;;1.30;;
803;SDS011;25687;49.976;8.240;2023-07-30T09:14:57;1.80;;;0.90;;
803;SDS011;25687;49.976;8.240;2023-07-30T09:17:23;0.90;;;0.90;;
803;SDS011;25687;49.976;8.240;2023-07-30T09:19:48;1.37;;;1.00;;
803;SDS011;25687;49.976;8.240;2023-07-30T09:22:28;0.60;;;0.60;;
803;SDS011;25687;49.976;8.240;2023-07-30T09:24:55;0.70;;;0.53;;
803;SDS011;25687;49.976;8.240;2023-07-30T09:27:22;1.47;;;0.70;;
803;SDS011;25687;49.976;8.240;2023-07-30T09:29:54;0.67;;;0.50;;
803;SDS011;25687;49.976;8.240;2023-07-30T09:32:28;0.63;;;0.63;;
803;SDS011;25687;49.976;8.240;2023-07-30T09:34:54;0.57;;;0.57;;
803;SDS011;25687;49.976;8.240;2023-07-30T09:37:20;0.83;;;0.60;;
803;SDS011;25687;49.976;8.240;2023-07-30T09:39:47;0.50;;;0.50;;
803;SDS011;25687;49.976;8.240;2023-07-30T09:42:13;1.47;;;0.60;;
803;SDS011;25687;49.976;8.240;2023-07-30T09:44:38;2.63;;;0.90;;
803;SDS011;25687;49.976;8.240;2023-07-30T09:47:04;0.70;;;0.70;;
803;SDS011;25687;49.976;8.240;2023-07-30T09:49:31;0.70;;;0.57;;
803;SDS011;25687;49.976;8.240;2023-07-30T09:51:57;1.42;;;0.52;;
803;SDS011;25687;49.976;8.240;2023-07-30T09:54:22;1.60;;;0.70;;
803;SDS011;25687;49.976;8.240;2023-07-30T09:56:48;0.70;;;0.60;;
803;SDS011;25687;49.976;8.240;2023-07-30T09:59:13;2.30;;;0.90;;
803;SDS011;25687;49.976;8.240;2023-07-30T10:01:43;1.75;;;1.00;;
803;SDS011;25687;49.976;8.240;2023-07-30T10:04:10;3.10;;;1.30;;
803;SDS011;25687;49.976;8.240;2023-07-30T10:06:38;1.53;;;0.83;;
803;SDS011;25687;49.976;8.240;2023-07-30T10:09:07;1.80;;;0.90;;
803;SDS011;25687;49.976;8.240;2023-07-30T10:11:34;2.15;;;0.90;;
803;SDS011;25687;49.976;8.240;2023-07-30T10:14:02;2.25;;;1.17;;
803;SDS011;25687;49.976;8.240;2023-07-30T10:16:28;2.15;;;1.00;;
803;SDS011;25687;49.976;8.240;2023-07-30T10:18:57;1.25;;;0.93;;
803;SDS011;25687;49.976;8.240;2023-07-30T10:21:24;2.17;;;0.85;;
803;SDS011;25687;49.976;8.240;2023-07-30T10:23:58;1.45;;;0.90;;
803;SDS011;25687;49.976;8.240;2023-07-30T10:26:28;1.83;;;1.08;;
803;SDS011;25687;49.976;8.240;2023-07-30T10:29:17;3.85;;;1.52;;
803;SDS011;25687;49.976;8.240;2023-07-30T10:31:54;2.13;;;1.10;;
803;SDS011;25687;49.976;8.240;2023-07-30T10:34:20;3.70;;;1.23;;
803;SDS011;25687;49.976;8.240;2023-07-30T10:36:47;3.80;;;1.48;;
803;SDS011;25687;49.976;8.240;2023-07-30T10:41:50;3.75;;;1.60;;
803;SDS011;25687;49.976;8.240;2023-07-30T10:44:17;3.78;;;1.25;;
803;SDS011;25687;49.976;8.240;2023-07-30T10:46:53;4.75;;;1.30;;
803;SDS011;25687;49.976;8.240;2023-07-30T10:49:22;3.97;;;1.60;;
803;SDS011;25687;49.976;8.240;2023-07-30T10:51:47;2.72;;;1.33;;
803;SDS011;25687;49.976;8.240;2023-07-30T10:54:13;4.07;;;1.45;;
803;SDS011;25687;49.976;8.240;2023-07-30T10:56:40;2.00;;;1.15;;
803;SDS011;25687;49.976;8.240;2023-07-30T10:59:06;2.95;;;1.13;;
803;SDS011;25687;49.976;8.240;2023-07-30T11:01:35;3.83;;;1.35;;
803;SDS011;25687;49.976;8.240;2023-07-30T11:04:01;2.78;;;1.35;;
803;SDS011;25687;49.976;8.240;2023-07-30T11:06:31;2.65;;;1.30;;
803;SDS011;25687;49.976;8.240;2023-07-30T11:08:56;2.42;;;1.35;;
803;SDS011;25687;49.976;8.240;2023-07-30T11:11:21;4.22;;;1.63;;
803;SDS011;25687;49.976;8.240;2023-07-30T11:13:49;3.63;;;1.00;;
803;SDS011;25687;49.976;8.240;2023-07-30T11:16:15;3.50;;;1.27;;
803;SDS011;25687;49.976;8.240;2023-07-30T11:18:42;3.40;;;1.33;;
803;SDS011;25687;49.976;8.240;2023-07-30T11:21:09;3.80;;;1.27;;
803;SDS011;25687;49.976;8.240;2023-07-30T11:23:39;3.57;;;1.50;;
803;SDS011;25687;49.976;8.240;2023-07-30T11:26:07;3.67;;;1.50;;
803;SDS011;25687;49.976;8.240;2023-07-30T11:28:37;3.53;;;1.30;;
803;SDS011;25687;49.976;8.240;2023-07-30T11:31:04;3.60;;;1.40;;
803;SDS011;25687;49.976;8.240;2023-07-30T11:33:40;3.77;;;1.50;;
803;SDS011;25687;49.976;8.240;2023-07-30T11:36:08;3.63;;;1.60;;
803;SDS011;25687;49.976;8.240;2023-07-30T11:38:36;4.00;;;1.53;;
803;SDS011;25687;49.976;8.240;2023-07-30T11:41:03;2.07;;;1.43;;
803;SDS011;25687;49.976;8.240;2023-07-30T11:43:28;3.07;;;1.43;;
803;SDS011;25687;49.976;8.240;2023-07-30T11:46:11;4.13;;;1.30;;
803;SDS011;25687;49.976;8.240;2023-07-30T11:48:42;5.03;;;1.57;;
803;SDS011;25687;49.976;8.240;2023-07-30T11:51:19;3.90;;;1.53;;
803;SDS011;25687;49.976;8.240;2023-07-30T11:53:53;3.13;;;1.20;;
803;SDS011;25687;49.976;8.240;2023-07-30T11:56:26;2.70;;;1.40;;
803;SDS011;25687;49.976;8.240;2023-07-30T11:58:59;3.53;;;1.53;;
803;SDS011;25687;49.976;8.240;2023-07-30T12:01:29;6.37;;;1.50;;
803;SDS011;25687;49.976;8.240;2023-07-30T12:03:56;3.93;;;1.67;;
803;SDS011;25687;49.976;8.240;2023-07-30T12:06:22;4.60;;;1.57;;
803;SDS011;25687;49.976;8.240;2023-07-30T12:08:50;4.17;;;1.87;;
803;SDS011;25687;49.976;8.240;2023-07-30T12:11:16;2.50;;;1.53;;
803;SDS011;25687;49.976;8.240;2023-07-30T12:13:44;3.40;;;1.60;;
803;SDS011;25687;49.976;8.240;2023-07-30T12:16:10;3.47;;;1.33;;
803;SDS011;25687;49.976;8.240;2023-07-30T12:18:37;3.87;;;1.47;;
803;SDS011;25687;49.976;8.240;2023-07-30T12:21:02;4.00;;;1.70;;
803;SDS011;25687;49.976;8.240;2023-07-30T12:23:29;3.60;;;1.50;;
803;SDS011;25687;49.976;8.240;2023-07-30T12:25:55;4.17;;;1.30;;
803;SDS011;25687;49.976;8.240;2023-07-30T12:28:20;5.57;;;1.57;;
803;SDS011;25687;49.976;8.240;2023-07-30T12:30:45;3.20;;;1.40;;
803;SDS011;25687;49.976;8.240;2023-07-30T12:33:11;5.20;;;1.60;;
803;SDS011;25687;49.976;8.240;2023-07-30T12:35:36;3.73;;;1.50;;
803;SDS011;25687;49.976;8.240;2023-07-30T12:38:01;4.23;;;1.47;;
803;SDS011;25687;49.976;8.240;2023-07-30T12:40:26;4.33;;;1.23;;
803;SDS011;25687;49.976;8.240;2023-07-30T12:42:54;4.00;;;1.30;;
803;SDS011;25687;49.976;8.240;2023-07-30T12:45:20;8.43;;;1.90;;
803;SDS011;25687;49.976;8.240;2023-07-30T12:47:45;4.17;;;1.67;;
803;SDS011;25687;49.976;8.240;2023-07-30T12:50:10;4.57;;;1.60;;
803;SDS011;25687;49.976;8.240;2023-07-30T12:52:36;4.90;;;1.50;;
803;SDS011;25687;49.976;8.240;2023-07-30T12:55:01;4.63;;;1.70;;
803;SDS011;25687;49.976;8.240;2023-07-30T12:57:28;3.30;;;1.20;;
803;SDS011;25687;49.976;8.240;2023-07-30T12:59:53;3.47;;;1.47;;
803;SDS011;25687;49.976;8.240;2023-07-30T13:02:19;3.53;;;1.30;;
803;SDS011;25687;49.976;8.240;2023-07-30T13:04:44;3.93;;;1.37;;
803;SDS011;25687;49.976;8.240;2023-07-30T13:07:09;4.03;;;1.40;;
803;SDS011;25687;49.976;8.240;2023-07-30T13:09:35;3.93;;;1.40;;
803;SDS011;25687;49.976;8.240;2023-07-30T13:12:00;4.17;;;1.33;;
803;SDS011;25687;49.976;8.240;2023-07-30T13:14:25;3.53;;;1.37;;
803;SDS011;25687;49.976;8.240;2023-07-30T13:16:50;3.63;;;1.50;;
803;SDS011;25687;49.976;8.240;2023-07-30T13:19:16;4.27;;;1.57;;
803;SDS011;25687;49.976;8.240;2023-07-30T13:21:41;5.77;;;1.53;;
803;SDS011;25687;49.976;8.240;2023-07-30T13:24:06;3.40;;;1.17;;
803;SDS011;25687;49.976;8.240;2023-07-30T13:26:32;4.50;;;1.37;;
803;SDS011;25687;49.976;8.240;2023-07-30T13:28:57;3.73;;;1.60;;
803;SDS011;25687;49.976;8.240;2023-07-30T13:31:22;4.63;;;1.57;;
803;SDS011;25687;49.976;8.240;2023-07-30T13:33:48;5.37;;;1.70;;
803;SDS011;25687;49.976;8.240;2023-07-30T13:36:13;3.70;;;1.50;;
803;SDS011;25687;49.976;8.240;2023-07-30T13:38:39;5.33;;;1.70;;
803;SDS011;25687;49.976;8.240;2023-07-30T13:41:05;3.47;;;1.47;;
803;SDS011;25687;49.976;8.240;2023-07-30T13:43:30;3.33;;;1.87;;
803;SDS011;25687;49.976;8.240;2023-07-30T13:45:56;2.83;;;1.37;;
803;SDS011;25687;49.976;8.240;2023-07-30T13:48:22;3.53;;;1.57;;
803;SDS011;25687;49.976;8.240;2023-07-30T13:50:48;3.70;;;1.50;;
803;SDS011;25687;49.976;8.240;2023-07-30T13:53:13;6.20;;;1.40;;
803;SDS011;25687;49.976;8.240;2023-07-30T13:55:39;3.90;;;1.70;;
803;SDS011;25687;49.976;8.240;2023-07-30T13:58:04;3.20;;;1.40;;
803;SDS011;25687;49.976;8.240;2023-07-30T14:00:29;3.07;;;1.30;;
803;SDS011;25687;49.976;8.240;2023-07-30T14:02:55;3.60;;;1.80;;
803;SDS011;25687;49.976;8.240;2023-07-30T14:05:20;6.40;;;1.43;;
803;SDS011;25687;49.976;8.240;2023-07-30T14:07:45;3.70;;;1.30;;
803;SDS011;25687;49.976;8.240;2023-07-30T14:10:11;5.63;;;1.60;;
803;SDS011;25687;49.976;8.240;2023-07-30T14:12:36;3.77;;;1.40;;
803;SDS011;25687;49.976;8.240;2023-07-30T14:15:02;2.53;;;1.47;;
803;SDS011;25687;49.976;8.240;2023-07-30T14:17:27;3.27;;;1.20;;
803;SDS011;25687;49.976;8.240;2023-07-30T14:19:52;3.77;;;1.43;;
803;SDS011;25687;49.976;8.240;2023-07-30T14:22:20;4.03;;;1.60;;
803;SDS011;25687;49.976;8.240;2023-07-30T14:24:45;4.63;;;1.53;;
803;SDS011;25687;49.976;8.240;2023-07-30T14:27:11;2.80;;;1.37;;
803;SDS011;25687;49.976;8.240;2023-07-30T14:29:36;3.97;;;1.30;;
803;SDS011;25687;49.976;8.240;2023-07-30T14:32:01;2.23;;;1.20;;
803;SDS011;25687;49.976;8.240;2023-07-30T14:34:27;7.23;;;2.00;;
803;SDS011;25687;49.976;8.240;2023-07-30T14:36:52;3.97;;;1.70;;
803;SDS011;25687;49.976;8.240;2023-07-30T14:39:17;5.60;;;1.63;;
803;SDS011;25687;49.976;8.240;2023-07-30T14:41:42;2.80;;;1.50;;
803;SDS011;25687;49.976;8.240;2023-07-30T14:44:08;6.30;;;2.03;;
803;SDS011;25687;49.976;8.240;2023-07-30T14:46:33;5.17;;;1.80;;
803;SDS011;25687;49.976;8.240;2023-07-30T14:48:58;4.40;;;1.80;;
803;SDS011;25687;49.976;8.240;2023-07-30T14:51:24;3.10;;;1.50;;
803;SDS011;25687;49.976;8.240;2023-07-30T14:53:49;3.30;;;1.20;;
803;SDS011;25687;49.976;8.240;2023-07-30T14:56:14;3.73;;;1.50;;
803;SDS011;25687;49.976;8.240;2023-07-30T14:58:40;4.23;;;1.90;;
803;SDS011;25687;49.976;8.240;2023-07-30T15:01:06;5.63;;;1.53;;
803;SDS011;25687;49.976;8.240;2023-07-30T15:03:31;3.83;;;1.70;;
803;SDS011;25687;49.976;8.240;2023-07-30T15:05:56;5.33;;;1.70;;
803;SDS011;25687;49.976;8.240;2023-07-30T15:08:22;4.47;;;1.50;;
803;SDS011;25687;49.976;8.240;2023-07-30T15:10:47;3.47;;;1.77;;
803;SDS011;25687;49.976;8.240;2023-07-30T15:13:12;8.07;;;1.50;;
803;SDS011;25687;49.976;8.240;2023-07-30T15:15:38;5.33;;;1.83;;
803;SDS011;25687;49.976;8.240;2023-07-30T15:18:03;3.17;;;1.50;;
803;SDS011;25687;49.976;8.240;2023-07-30T15:20:32;6.17;;;2.20;;